Terminal Aerodrome Forecast
Issued by NWS

Home | Current Version | Previous Version | Text Only | Print | Product List | Glossary On
Versions: 1 2 3 4 5 6 7 8 9 10 11 12 13 14 15 16 17 18 19
000
FTUS43 KBIS 230708 AAA
TAFJMS
TAF AMD
KJMS 230708Z 2307/2406 36014KT P6SM BKN015
     FM231400 36014G23KT P6SM OVC020
     FM232000 01014KT P6SM BKN040
     FM240200 03008KT P6SM SCT070=

USA.gov is the U.S. government's official web portal to all federal, state and local government web resources and services.